| Record Date MM/DD/YYYY | Record Julian Date NNN day of the year | Air Temperature Max (Degrees Fahrenheit F) | Time Max Air Temperature HH:MM:SS This is the time of max air temperature standard time. | Air Temperature Min (Degrees Fahrenheit F) | Time Min Air Temperature HH:MM:SS This is the time of min air temperature standard time. | Air Temperature Observed (Degrees Fahrenheit F) This is an instantaneous reading for air temperature at 7:00:00 standard time. | Relative Humidity Max (Percent) | Time Max Relative Humidity HH:MM:SS This is the time of max relative humidity standard time. | Relative Humidity Min (Percent) | Time Min Relative Humidity HH:MM:SS This is the time of min relative humidity standard time. | Relative Humidity Observed (Percent) This is an instantaneous reading at 7:00:00 standard time. | Precipitation (Inches n.nn) total rain fall that occurred for the day. | Pan Evaporation (Inches n.nn) total evaporation that occured for the day. | Wind Run (Miles) Wind travel for the day. | Wind Speed (Miles Per Hour) Resultant / Average speed for the day. | Wind Direction (Degrees) Resultant Direction for the day | Solar Radiation (Langley's) that occurred for the day. | Soil Temperature Max at 2 inch depth (Degrees Fahrenheit F) that occurred during the day. | Time Max Soil temperature at 2 inches HH:MM:SS This is the time of max 2 inch soil temperature standard time. | Soil Temperature Min at 2 inch depth (Degrees Fahrenheit F) that occurred during the day. | Time Min Soil temperature at 2 inches HH:MM:SS This is the time of min 2 inch soil temperature standard time. | Soil Temperature Observed at 2 inch depth (Degrees Fahrenheit F) This is an instantaneous reading 2 inch soil temperature at 7:00:00 standard time. | Soil Temperature Max at 4 inch depth (Degrees Fahrenheit F) that occurred during the day. | Time Max Soil temperature at 4 inches HH:MM:SS This is the time of max 4 inch soil temperature standard time. | Soil Temperature Min at 4 inch depth (Degrees Fahrenheit F) that occurred during the day. | Time Min Soil temperature at 4 inches HH:MM:SS This is the time of min 4 inch soil temperature standard time. | Soil Temperature Observed at 4 inch depth (Degrees Fahrenheit F) This is an instantaneous reading 4 inch soil temperature at 7:00:00 standard time. | DD50 Degree Days 50 Fahrenheit. | Adjusted DD50 Degree Days 50 Fahrenheit adjusted for latitude. | DD60 Degree Days 60 Fahrenheit. |
|---|---|---|---|---|---|---|---|---|---|---|---|---|---|---|---|---|---|---|---|---|---|---|---|---|---|---|---|---|---|---|
| 04/09/2026 | 99 | 81 | 13:39:04 | 57 | 5:35:04 | 60 | 83 | 21:25:02 | 41 | 13:25:01 | 65 | 0 | 64 | 2.7 | 118 | 501 | 73 | 15:23:03 | 63 | 6:55:00 | 63 | 71 | 16:43:02 | 64 | 8:20:00 | 64 | 19 | 20.15 | 9 | |
| 04/10/2026 | 100 | 84 | 13:56:04 | 56 | 5:06:04 | 60 | 89 | 6:19:02 | 37 | 14:41:05 | 80 | 0 | 34 | 1.4 | 125 | 512 | 73 | 14:57:02 | 63 | 6:57:00 | 63 | 71 | 15:20:01 | 65 | 7:43:05 | 65 | 20 | 21.19 | 10 | |
| 04/11/2026 | 101 | 85 | 14:07:02 | 56 | 5:50:01 | 62 | 95 | 5:56:04 | 37 | 17:10:01 | 87 | 0 | 28 | 1.2 | 123 | 500 | 73 | 14:44:05 | 64 | 7:01:02 | 64 | 72 | 16:17:02 | 66 | 8:01:03 | 66 | 20.5 | 21.72 | 10.5 | |
| 04/12/2026 | 102 | 84 | 13:41:05 | 59 | 5:29:00 | 63 | 89 | 5:40:05 | 36 | 14:12:02 | 82 | 0 | 75 | 3.1 | 158 | 490 | 73 | 14:56:03 | 65 | 6:40:00 | 65 | 71 | 15:28:03 | 66 | 7:47:05 | 66 | 21.5 | 22.75 | 11.5 | |
| 04/13/2026 | 103 | 83 | 15:46:00 | 66 | 5:25:01 | 68 | 91 | 6:17:03 | 51 | 15:46:02 | 89 | 0 | 71 | 2.9 | 158 | 403 | 73 | 15:49:05 | 67 | 6:38:02 | 67 | 72 | 16:10:02 | 68 | 7:41:04 | 68 | 24.5 | 25.78 | 14.5 | |
| 04/14/2026 | 104 | 87 | 13:56:04 | 64 | 5:52:01 | 67 | 95 | 6:06:03 | 43 | 15:24:01 | 91 | 0 | 70 | 2.9 | 169 | 541 | 76 | 15:03:01 | 67 | 7:19:03 | 67 | 74 | 15:57:05 | 68 | 7:49:03 | 68 | 25.5 | 26.81 | 15.5 | |
| 04/15/2026 | 105 | 85 | 15:01:04 | 63 | 5:51:02 | 66 | 91 | 6:10:01 | 41 | 12:34:04 | 86 | 0 | 72 | 3.0 | 172 | 522 | 75 | 14:48:05 | 68 | 7:39:04 | 68 | 74 | 15:25:03 | 69 | 8:15:04 | 69 | 24 | 25.34 | 14 | |
| 04/16/2026 | 106 | 87 | 14:09:05 | 66 | 4:20:00 | 70 | 89 | 6:12:03 | 39 | 14:02:03 | 85 | 0 | 52 | 2.2 | 190 | 468 | 76 | 14:49:00 | 69 | 6:08:00 | 69 | 74 | 15:34:02 | 70 | 7:04:00 | 70 | 26.5 | 27.36 | 16.5 | |
| 04/17/2026 | 107 | 88 | 13:58:03 | 65 | 5:23:03 | 70 | 96 | 5:42:02 | 45 | 13:59:03 | 91 | 0 | 59 | 2.5 | 170 | 489 | 76 | 15:17:01 | 69 | 5:54:05 | 69 | 75 | 16:08:02 | 70 | 7:00:03 | 70 | 26.5 | 27.39 | 16.5 | |
| 04/18/2026 | 108 | 83 | 11:20:02 | 50 | 23:23:00 | 68 | 98 | 17:58:05 | 54 | 11:15:03 | 86 | 0 | 70 | 2.9 | 228 | 225 | 74 | 12:17:01 | 67 | 23:57:04 | 70 | 73 | 12:59:03 | 69 | 23:59:03 | 70 | 16.5 | 17.92 | 6.5 | |
| 04/19/2026 | 109 | 74 | 16:13:00 | 46 | 23:52:01 | 52 | 100 | 1:34:01 | 32 | 16:49:00 | 99 | 0 | 15 | 0.6 | 94 | 517 | 71 | 15:29:05 | 64 | 0:00:00 | 64 | 70 | 16:22:00 | 66 | 23:59:00 | 66 | 10 | 11.45 | 0 | |
| 04/20/2026 | 110 | 78 | 16:40:05 | 41 | 5:36:00 | 51 | 100 | 4:21:04 | 30 | 13:06:01 | 90 | 0 | 28 | 1.2 | 171 | 521 | 70 | 15:31:00 | 60 | 6:46:03 | 60 | 69 | 16:51:00 | 63 | 7:37:02 | 63 | 9.5 | 10.98 | 0 | |
| 04/21/2026 | 111 | 80 | 11:58:02 | 46 | 3:39:03 | 57 | 98 | 4:18:04 | 30 | 11:59:01 | 80 | 0 | 30 | 1.2 | 163 | 361 | 68 | 15:05:01 | 61 | 6:34:03 | 61 | 68 | 15:54:05 | 63 | 7:15:04 | 63 | 13 | 14.51 | 3 | |
| 04/22/2026 | 112 | 83 | 14:22:03 | 60 | 0:33:01 | 64 | 86 | 0:10:01 | 34 | 11:39:00 | 73 | 0 | 38 | 1.6 | 154 | 465 | 72 | 15:15:03 | 65 | 6:09:02 | 65 | 71 | 15:58:03 | 66 | 6:30:02 | 66 | 21.5 | 23.03 | 11.5 | |
| 04/23/2026 | 113 | 86 | 14:39:02 | 63 | 3:34:03 | 65 | 93 | 5:12:02 | 33 | 15:24:01 | 91 | 0 | 63 | 2.6 | 144 | 536 | 74 | 15:27:03 | 66 | 4:28:02 | 66 | 72 | 16:13:00 | 67 | 6:05:04 | 67 | 24.5 | 26.06 | 14.5 | |
| 04/24/2026 | 114 | 85 | 12:45:02 | 62 | 21:25:04 | 67 | 100 | 21:00:00 | 54 | 12:46:01 | 90 | 0 | 63 | 2.6 | 145 | 279 | 73 | 13:15:04 | 67 | 23:45:05 | 67 | 72 | 14:18:00 | 68 | 7:23:05 | 68 | 23.5 | 25.08 | 13.5 | |
| 04/25/2026 | 115 | 82 | 16:48:04 | 61 | 4:36:03 | 63 | 100 | 1:55:05 | 61 | 16:48:05 | 100 | 0.01 | 42 | 1.8 | 248 | 472 | 74 | 15:34:01 | 67 | 5:59:01 | 67 | 72 | 17:52:00 | 68 | 7:01:02 | 68 | 21.5 | 23.11 | 11.5 | |
| 04/26/2026 | 116 | 88 | 12:54:05 | 62 | 4:51:02 | 65 | 99 | 6:02:02 | 44 | 12:42:03 | 96 | 0 | 35 | 1.4 | 151 | 516 | 76 | 15:56:01 | 69 | 7:09:04 | 69 | 74 | 17:50:03 | 70 | 8:18:04 | 70 | 25 | 26.64 | 15 | |
| 04/27/2026 | 117 | 87 | 13:52:00 | 69 | 5:11:05 | 71 | 97 | 5:30:03 | 64 | 14:15:00 | 92 | 0 | 74 | 3.1 | 148 | 385 | 76 | 15:44:04 | 71 | 7:17:03 | 71 | 75 | 16:33:00 | 72 | 7:20:01 | 72 | 28 | 27.66 | 18 | |
| 04/28/2026 | 118 | 83 | 12:52:01 | 67 | 22:17:01 | 74 | 99 | 16:37:00 | 71 | 10:55:00 | 89 | 0 | 61 | 2.6 | 158 | 214 | 75 | 13:26:02 | 72 | 6:06:01 | 72 | 78 | 12:51:05 | 73 | 6:46:02 | 73 | 25 | 26.69 | 15 | |
| 04/29/2026 | 119 | 76 | 10:08:04 | 64 | 23:40:02 | 72 | 97 | 23:46:00 | 83 | 13:04:05 | 95 | 0.01 | 47 | 2.0 | 260 | 130 | 74 | 13:58:03 | 71 | 23:53:04 | 72 | 8:03:02 | 72 | 6:18:02 | 72 | 20 | 21.71 | 10 | ||
| 04/30/2026 | 120 | 72 | 14:57:05 | 59 | 23:43:02 | 61 | 99 | 4:47:05 | 59 | 15:03:00 | 96 | 0 | 14 | 0.6 | 59 | 262 | 71 | 15:42:05 | 68 | 23:59:05 | 70 | 0:01:01 | 73 | 3:03:00 | 152 | 15.5 | 17.23 | 5.5 | ||
| 05/01/2026 | 121 | 63 | 13:12:04 | 56 | 6:04:03 | 57 | 92 | 0:20:04 | 73 | 13:59:01 | 91 | 0 | 5 | 0.2 | 44 | 121 | 69 | 0:00:00 | 66 | 23:57:00 | 67 | 3:55:01 | 23:58:03 | 182 | 9.5 | 11.26 | 0 | |||
| 05/02/2026 | 122 | 75 | 15:09:03 | 51 | 23:57:00 | 56 | 98 | 23:59:03 | 31 | 15:18:00 | 75 | 0 | 28 | 1.2 | 353 | 576 | 70 | 15:32:05 | 64 | 8:31:05 | 64 | 16:49:00 | 115 | 21:57:00 | 147 | 13 | 14.78 | 3 | ||
| 05/03/2026 | 123 | 78 | 15:36:04 | 49 | 1:51:00 | 56 | 100 | 2:31:04 | 32 | 12:11:00 | 68 | 0 | 49 | 2.0 | 166 | 579 | 71 | 15:25:05 | 63 | 7:39:02 | 63 | 14:14:02 | 69 | 13:31:00 | 135 | 13.5 | 15.3 | 3.5 | ||
| 05/04/2026 | 124 | 81 | 15:28:04 | 58 | 5:35:04 | 62 | 86 | 20:20:04 | 39 | 15:29:05 | 75 | 0 | 66 | 2.8 | 205 | 559 | 72 | 15:52:04 | 65 | 6:39:02 | 65 | 14:27:03 | 130 | 6:46:04 | 131 | 19.5 | 21.32 | 9.5 | ||
| 05/05/2026 | 125 | 77 | 15:56:01 | 59 | 3:15:01 | 64 | 84 | 5:41:04 | 69 | 10:27:04 | 77 | 0 | 73 | 3.1 | 150 | 196 | 70 | 17:22:02 | 66 | 6:24:04 | 66 | 134 | 1:18:04 | 123 | 23:24:05 | 125 | 18 | 19.84 | 8 | |
| 05/06/2026 | 126 | 80 | 10:16:05 | 56 | 23:49:05 | 72 | 99 | 22:41:01 | 76 | 10:17:00 | 88 | 0 | 57 | 2.4 | 239 | 185 | 72 | 11:23:02 | 67 | 23:57:02 | 69 | 130 | 13:37:01 | 121 | 6:56:04 | 122 | 18 | 19.86 | 8 | |
| 05/07/2026 | 127 | 77 | 15:12:02 | 55 | 4:55:01 | 56 | 99 | 0:34:00 | 44 | 15:14:05 | 95 | 0 | 24 | 1.0 | 15 | 554 | 72 | 15:35:04 | 66 | 7:08:01 | 66 | 131 | 15:46:03 | 118 | 7:45:02 | 118 | 16 | 17.88 | 6 | |
| 05/08/2026 | 128 | 71 | 15:17:05 | 55 | 3:52:02 | 59 | 99 | 23:58:04 | 63 | 13:03:00 | 87 | 0 | 32 | 1.3 | 105 | 270 | 69 | 16:14:02 | 66 | 6:17:00 | 66 | 132 | 14:53:02 | 119 | 23:05:01 | 123 | 13 | 14.9 | 3 | |
| Average | 80.77 | 58.03 | 63.27 | 94.7 | 48.2 | 86.3 | 0 | 47.97 | 411.63 | 72.7 | 66.2 | 66.5 | 82.29 | 79 | 88.63 | 19.4 | 20.86 | 9.43 | ||||||||||||
| Total | 0.02 | 582 | 625.7 | 283 |